To NAV CANADA Home Page Login to a new session Search on AWWS site Disclaimer Vers la page française équivalente Tips FAQ What's new on the site To the Forecasts and Observations / NOTAM section To "File a Flight Plan" website Publications and other links Update of the User's profile FIC Telephone Numbers My Weather Data Folder Route Weather Data Regional Weather Data Local Weather Data To the Forecasts and Observations / NOTAM section
Request Generated 02/17/2019 at 02:35:50 UTC . Weather information available at that time is displayed.

METAR/TAF

TORONTO/LESTER B. PEARSON INTL/ON    

METAR CYYZ 170200Z 02007KT 15SM FEW180 FEW220 M07/M12 A3011 RMK AC1CI1 SLP208=
METAR CYYZ 170100Z 01010KT 15SM FEW180 M06/M12 A3011 RMK AC1 AC TR SLP208=
METAR CYYZ 170000Z 01012KT 15SM FEW180 M06/M12 A3011 RMK AC1 AC TR SLP207=

TAF CYYZ 162339Z 1700/1806 01010KT P6SM FEW030 SCT220
FM171200 01008KT P6SM BKN012
FM171400 04008KT P6SM -SHSN BKN012 BKN220
FM171600 05010KT 4SM -SHSN BKN015 OVC140
FM172200 05012KT 4SM -SN BKN020 OVC070 PROB30 1722/1806 11/2SM
-SHSN
RMK NXT FCST BY 170300Z=

KITCHENER/WATERLOO/ON    (show WxCam)

METAR CYKF 170200Z AUTO 35005KT 9SM SCT210 M10/M12 A3008 RMK SLP207=
METAR CYKF 170100Z AUTO 35005KT 9SM SCT230 SCT250 M09/M12 A3008 RMK SLP206=
METAR CYKF 170000Z AUTO 34006KT 9SM FEW019 M08/M11 A3007 RMK SLP205=

TAF CYKF 170138Z 1702/1714 35005KT P6SM FEW020 TEMPO 1702/1710 BKN020
BECMG 1703/1705 VRB03KT
FM171000 05006KT P6SM BKN020 OVC220
RMK FCST BASED ON AUTO OBS. NXT FCST BY 170800Z=

BORDEN/ON    

SPECI CYBN 170233Z AUTO 36004KT 9SM OVC014 M08/M10 A3012=
SPECI CYBN 170231Z AUTO 36005KT 9SM -SN OVC014 M08/M10 A3012=
METAR CYBN 170200Z AUTO 02007KT 9SM -SN OVC017 M08/M10 A3011 RMK SLP210=
METAR CYBN 170100Z AUTO 02005KT 9SM -SN OVC019 M07/M09 A3011 RMK SLP210=
SPECI CYBN 170035Z AUTO 01005KT 9SM -SN FEW016 OVC019 M07/M09 A3010=
SPECI CYBN 170010Z AUTO 01006KT 9SM -SN OVC013 M07/M09 A3010=
METAR CYBN 170000Z AUTO 02006KT 8SM -SN OVC017 M07/M09 A3010 RMK SLP207=

TAF AMD CYBN 162247Z 1618/1706 FCST CNCLD DUE END OF FLYING PROGRAM
RMK NXT FCST WILL BE ISSUED AT 171215Z=

MUSKOKA/ON    (show WxCam)

METAR CYQA 170200Z AUTO 00000KT 9SM SCT200 SCT220 M15/M16 A3008 RMK ICG SLP211=
SPECI CYQA 170114Z AUTO 31003KT 9SM FEW017 SCT021 SCT200 M12/M13 A3008 RMK ICG SLP209=
SPECI CYQA 170110Z AUTO 31003KT 9SM -SN SCT017 SCT021 M12/M14 A3008 RMK ICG SLP209=
METAR CYQA 170100Z AUTO 33003KT 9SM -SN SCT017 BKN023 M11/M13 A3007 RMK ICG SLP208=
SPECI CYQA 170034Z AUTO 30004KT 9SM -SN OVC021 M10/M13 A3008 RMK ICG SLP209=
SPECI CYQA 170030Z AUTO 30003KT 9SM OVC021 M11/M13 A3008 RMK ICG SLP209=
SPECI CYQA 170017Z AUTO 29005KT 9SM -SN OVC021 M10/M13 A3008 RMK ICG SLP208=
SPECI CYQA 170010Z AUTO 29005KT 9SM OVC021 M10/M13 A3008 RMK ICG INTMT SLP208=
METAR CYQA 170000Z AUTO 27004KT 9SM -SN OVC023 M10/M13 A3008 RMK ICG SLP208=

TAF AMD CYQA 170021Z 1700/1703 29005KT P6SM -SN BKN020 TEMPO
1700/1702 P6SM NSW SCT020
FM170200 VRB03KT P6SM FEW020 SCT200
RMK FCST BASED ON AUTO OBS. NXT FCST WILL BE ISSUED AT 171245Z=

HAMILTON/ON    

METAR CYHM 170200Z 35007KT 15SM FEW030 SCT210 M07/M11 A3008 RMK SC1CC4 SC TR SLP202=
METAR CYHM 170100Z 33007KT 15SM BKN220 M07/M11 A3008 RMK CI5 SLP203=
METAR CYHM 170000Z 32009KT 15SM FEW030 SCT250 M06/M11 A3007 RMK SC1CI4 SC TR SLP199=

TAF CYHM 162339Z 1700/1724 32008KT P6SM FEW030
FM170300 02006KT P6SM BKN020 TEMPO 1703/1711 BKN025
FM171100 03008KT P6SM -SN BKN008 OVC015
FM171400 05008KT 4SM -SHSN OVC008
FM171800 06010G20KT 4SM -SHSN BKN012 OVC100 PROB30 1718/1721 2SM
-SHSN
FM172100 05015G25KT 11/2SM -SHSN OVC010 PROB40 1721/1724 3/4SM
-SHSN BLSN VV007
RMK NXT FCST BY 170600Z=

WIARTON/ON    

METAR CYVV 170200Z VRB02KT 15SM OVC017 M08/M11 A3011 RMK SC8 SLP214=
METAR CYVV 170100Z 03004KT 340V060 15SM OVC016 M08/M11 A3011 RMK SC8 SLP212=
METAR CYVV 170000Z 36004KT 300V030 15SM OVC016 M08/M11 A3011 RMK SC8 SLP214=

*** REMARK        : Forecast period has ended; this was the last TAF issued
*** REMARQUE : La période de prévision est échue; ceci était le dernier TAF qui a été émis
TAF CYVV 161938Z 1620/1624 30006KT P6SM -SHSN BKN020 TEMPO 1620/1624
P6SM NSW SCT020 BKN030
RMK NXT FCST WILL BE ISSUED AT 171145Z=

SARNIA (CHRIS HADFIELD)/ON    (show WxCam)

METAR CYZR 170200Z AUTO 03006KT 9SM OVC024 M04/M08 A3012 RMK SLP211=
METAR CYZR 170100Z AUTO 03009KT 9SM OVC022 M04/M08 A3011 RMK SLP207=
METAR CYZR 170000Z AUTO 02011G18KT 9SM OVC022 M04/M08 A3010 RMK SLP205=

TAF CYZR 161938Z 1620/1703 36010KT P6SM -SHSN OVC020 TEMPO 1620/1703
P6SM NSW SCT020 OVC030
RMK FCST BASED ON AUTO OBS. NXT FCST WILL BE ISSUED AT 170845Z=

LONDON/ON    

METAR CYXU 170200Z 01008KT 15SM OVC020 M06/M11 A3008 RMK SC8 SLP204=
METAR CYXU 170100Z 01008KT 15SM OVC020 M06/M11 A3008 RMK SC8 SLP202=
METAR CYXU 170000Z 02008KT 15SM OVC021 M06/M10 A3009 RMK SC8 SLP205=

TAF CYXU 162339Z 1700/1724 02008KT P6SM BKN020 TEMPO 1700/1708 BKN025
FM170800 05005KT P6SM BKN015
FM171400 08008KT P6SM BKN008 BKN120
FM171700 08012G22KT 4SM -SHSN BKN010 OVC080
FM171900 08012G22KT 2SM -SHSN BKN012 OVC060 PROB30 1720/1723 1SM
-SHSN VV008
RMK NXT FCST BY 170600Z=

ST. CATHARINES/NIAGARA DISTRICT/ON    

METAR CYSN 170200Z 02010KT 15SM BKN035 M04/M08 A3011 RMK SC6 LAST STFD OBS / NEXT 171200 UTC SLP202=
METAR CYSN 170100Z 03009KT 15SM SCT035 SCT240 M04/M09 A3010 RMK SC3CI1 SLP198=
METAR CYSN 170000Z 00000KT 15SM BKN036 M03/M09 A3010 RMK SC5 SLP200=

*** REMARK        : Forecast period has ended; this was the last TAF issued
*** REMARQUE : La période de prévision est échue; ceci était le dernier TAF qui a été émis
TAF CYSN 161938Z 1620/1702 30008KT P6SM SCT030 TEMPO 1620/1624 BKN030
BECMG 1622/1624 36006KT
FM170000 36006KT P6SM SCT020 TEMPO 1700/1702 P6SM -SHSN BKN020
RMK NXT FCST WILL BE ISSUED AT 171345Z=
Your time UTC time
Weather data provided by Environment Canada and NAV CANADA